Time;durP1;ratioP1;P1;durP2;ratioP2;P2;SDS_P1;SDS_P2;PMS_P1;PMS_P2;Temp;Humidity;BMP_temperature;BMP_pressure;BME280_temperature;BME280_humidity;BME280_pressure;Samples;Min_cycle;Max_cycle;Signal;HPM_P1;HPM_P2
2022/05/07 00:02:06;;;;;;;18.20;11.73;;;;;;;13.65;62.34;100854.94;4990916;28;97165;-85
2022/05/07 00:04:36;;;;;;;26.05;12.40;;;;;;;13.79;62.03;100871.13;4956262;28;97555;-87
2022/05/07 00:07:05;;;;;;;24.15;12.73;;;;;;;13.64;62.17;100863.75;4972129;28;98646;-86
2022/05/07 00:09:32;;;;;;;24.95;12.38;;;;;;;13.72;61.80;100873.09;4955987;28;101207;-86
2022/05/07 00:11:58;;;;;;;21.63;12.57;;;;;;;13.77;61.49;100875.59;4962238;28;97855;-86
2022/05/07 00:14:23;;;;;;;19.27;11.55;;;;;;;13.74;62.42;100879.19;4973688;28;97176;-83
2022/05/07 00:19:34;;;;;;;24.27;13.00;;;;;;;13.57;62.53;100882.47;4976556;28;99897;-86
2022/05/07 00:22:00;;;;;;;22.38;12.02;;;;;;;13.57;61.85;100874.56;4956603;28;96997;-88
2022/05/07 00:24:26;;;;;;;20.88;13.35;;;;;;;13.54;62.06;100885.22;4956831;28;97554;-86
2022/05/07 00:26:52;;;;;;;17.60;13.07;;;;;;;13.51;62.30;100880.06;4990805;28;97885;-84
2022/05/07 00:29:18;;;;;;;22.45;12.95;;;;;;;13.58;61.76;100873.66;4991175;28;98416;-87
2022/05/07 00:31:43;;;;;;;20.60;12.63;;;;;;;13.60;61.93;100884.13;4970071;28;97083;-84
2022/05/07 00:34:09;;;;;;;22.13;12.70;;;;;;;13.54;62.45;100885.22;4956926;28;97321;-85
2022/05/07 00:36:35;;;;;;;22.38;13.82;;;;;;;13.55;62.11;100888.72;4969944;28;98049;-86
2022/05/07 00:39:00;;;;;;;21.65;12.32;;;;;;;13.58;62.19;100883.31;4969974;28;101037;-86
2022/05/07 00:41:26;;;;;;;21.83;13.52;;;;;;;13.66;61.97;100883.03;4970458;28;97148;-86
2022/05/07 00:43:52;;;;;;;21.02;13.15;;;;;;;13.54;61.46;100869.41;4971066;28;98297;-84
2022/05/07 00:46:23;;;;;;;24.65;13.52;;;;;;;13.64;61.95;100883.09;4973738;28;101133;-86
2022/05/07 00:48:49;;;;;;;23.27;13.17;;;;;;;13.46;61.84;100887.28;4956562;28;101694;-86
2022/05/07 00:53:59;;;;;;;29.00;12.45;;;;;;;13.34;62.51;100882.47;4972113;28;97213;-86
2022/05/07 00:56:25;;;;;;;25.38;12.90;;;;;;;13.26;62.25;100872.19;4963148;28;98600;-83
2022/05/07 00:58:51;;;;;;;23.88;13.15;;;;;;;13.32;62.37;100889.56;4974444;28;97996;-86
2022/05/07 01:01:17;;;;;;;24.23;12.45;;;;;;;13.29;62.65;100876.47;4959770;28;96938;-86
2022/05/07 01:03:45;;;;;;;21.92;13.10;;;;;;;13.18;63.28;100887.41;4968583;28;96998;-85
2022/05/07 01:06:13;;;;;;;20.83;12.63;;;;;;;13.26;62.58;100885.38;4995994;28;97296;-84
2022/05/07 01:08:40;;;;;;;19.58;12.40;;;;;;;13.20;62.30;100875.00;4954292;28;96888;-86
2022/05/07 01:11:06;;;;;;;21.15;12.80;;;;;;;13.33;62.08;100872.84;4983248;28;96803;-87
2022/05/07 01:13:32;;;;;;;19.98;11.75;;;;;;;13.39;61.54;100871.75;4987701;28;98234;-86
2022/05/07 01:15:58;;;;;;;17.85;12.93;;;;;;;12.95;62.89;100859.22;4989902;28;100495;-86
2022/05/07 01:18:29;;;;;;;20.30;12.90;;;;;;;13.03;62.95;100869.47;4973645;28;101043;-86
2022/05/07 01:20:57;;;;;;;20.05;12.20;;;;;;;12.85;62.90;100852.53;4974018;28;97030;-87
2022/05/07 01:23:24;;;;;;;20.02;12.88;;;;;;;13.00;62.82;100865.19;4972442;28;97410;-87
2022/05/07 01:25:50;;;;;;;18.73;12.20;;;;;;;13.10;62.62;100868.34;4971544;28;101683;-86
2022/05/07 01:28:16;;;;;;;18.17;12.68;;;;;;;13.08;63.10;100870.19;4973820;28;101664;-86
2022/05/07 01:30:42;;;;;;;20.58;12.70;;;;;;;13.16;62.55;100864.66;4956587;28;97425;-86
2022/05/07 01:33:07;;;;;;;19.15;12.23;;;;;;;13.02;62.28;100849.31;4972406;28;98027;-86
2022/05/07 01:35:33;;;;;;;20.75;12.07;;;;;;;13.01;63.03;100858.16;4969894;28;101325;-85
2022/05/07 01:37:59;;;;;;;20.95;12.35;;;;;;;12.89;63.25;100868.22;4957097;28;101235;-87
2022/05/07 01:40:29;;;;;;;20.13;13.18;;;;;;;12.87;62.91;100859.50;4957729;28;97208;-86
2022/05/07 01:42:55;;;;;;;22.65;12.68;;;;;;;12.84;63.38;100853.47;4955739;28;96813;-85
2022/05/07 01:45:22;;;;;;;21.33;13.07;;;;;;;12.72;63.94;100854.75;4971783;28;100482;-84
2022/05/07 01:50:40;;;;;;;25.58;13.45;;;;;;;12.81;63.22;100835.13;4962152;28;97327;-87
2022/05/07 01:53:08;;;;;;;20.10;13.40;;;;;;;12.96;62.95;100857.44;4971775;28;97308;-87
2022/05/07 01:55:34;;;;;;;22.95;14.27;;;;;;;12.92;63.15;100869.88;4968952;28;101211;-87
2022/05/07 01:58:00;;;;;;;21.52;13.85;;;;;;;12.84;63.79;100869.28;4963786;28;101256;-87
2022/05/07 02:00:26;;;;;;;25.20;12.55;;;;;;;12.84;63.67;100867.50;4959486;28;96660;-84
2022/05/07 02:02:52;;;;;;;28.63;13.35;;;;;;;12.83;63.83;100859.66;4992675;28;97143;-85
2022/05/07 02:05:22;;;;;;;23.58;13.10;;;;;;;12.75;63.75;100859.91;4957705;28;101627;-83
2022/05/07 02:07:48;;;;;;;22.30;14.57;;;;;;;12.61;64.23;100859.53;4969635;28;102135;-86
2022/05/07 02:10:15;;;;;;;21.52;14.40;;;;;;;12.48;65.08;100861.72;4960528;28;97606;-85
2022/05/07 02:12:40;;;;;;;21.15;13.60;;;;;;;12.42;65.06;100836.47;4959163;28;97351;-87
2022/05/07 02:15:07;;;;;;;22.25;13.98;;;;;;;12.78;64.50;100867.72;4975912;28;100356;-87
2022/05/07 02:17:34;;;;;;;24.85;14.02;;;;;;;12.88;64.29;100868.25;4972587;28;101302;-87
2022/05/07 02:20:00;;;;;;;23.63;14.55;;;;;;;13.00;64.06;100869.59;4957069;28;97123;-86
2022/05/07 02:22:25;;;;;;;20.92;13.77;;;;;;;13.05;64.14;100867.66;4959484;28;97457;-84
2022/05/07 02:24:51;;;;;;;27.50;13.27;;;;;;;13.15;63.75;100863.78;4991482;28;101629;-86
2022/05/07 02:27:21;;;;;;;22.45;13.32;;;;;;;13.17;63.51;100863.72;4976747;28;101249;-85
2022/05/07 02:29:47;;;;;;;27.98;14.45;;;;;;;13.18;63.74;100866.31;4976112;28;97051;-86
2022/05/07 02:32:13;;;;;;;22.38;13.15;;;;;;;13.07;64.09;100850.03;4975171;28;96998;-86
2022/05/07 02:34:42;;;;;;;23.40;14.27;;;;;;;13.25;63.12;100869.59;4971616;28;101766;-86
2022/05/07 02:37:16;;;;;;;22.38;13.32;;;;;;;13.08;63.89;100854.38;4977146;28;98026;-86
2022/05/07 02:39:48;;;;;;;23.15;14.50;;;;;;;12.98;64.35;100859.13;4961049;28;97157;-86
2022/05/07 02:45:11;;;;;;;23.75;13.23;;;;;;;12.87;64.61;100863.91;4974674;28;98892;-86
2022/05/07 02:47:38;;;;;;;21.40;14.13;;;;;;;12.90;63.93;100859.38;4962669;28;101630;-86
2022/05/07 02:50:05;;;;;;;19.08;13.80;;;;;;;13.05;63.74;100854.47;4990883;28;97365;-86
2022/05/07 02:52:33;;;;;;;25.75;13.55;;;;;;;12.96;63.58;100841.63;4974861;28;97222;-86
2022/05/07 02:55:00;;;;;;;21.70;14.57;;;;;;;12.96;64.27;100860.94;4958661;28;100763;-86
2022/05/07 02:57:26;;;;;;;18.40;13.05;;;;;;;12.88;64.16;100852.44;4955267;28;99831;-85
2022/05/07 02:59:51;;;;;;;19.17;13.70;;;;;;;12.96;64.06;100852.19;4967968;28;96735;-84
2022/05/07 03:02:17;;;;;;;23.38;13.73;;;;;;;12.94;63.82;100854.84;4991937;28;97263;-88
2022/05/07 03:04:43;;;;;;;25.17;15.32;;;;;;;12.76;64.04;100837.91;4957117;28;101744;-84
2022/05/07 03:07:09;;;;;;;19.27;14.10;;;;;;;12.80;63.85;100857.09;4959397;28;100186;-86
2022/05/07 03:09:35;;;;;;;24.77;14.25;;;;;;;12.67;64.88;100862.81;4958731;28;97177;-85
2022/05/07 03:12:01;;;;;;;21.67;13.93;;;;;;;12.76;64.15;100866.91;4974371;28;96854;-86
2022/05/07 03:14:26;;;;;;;21.85;14.23;;;;;;;12.72;64.26;100857.38;4957507;28;101652;-88
2022/05/07 03:16:52;;;;;;;25.27;14.73;;;;;;;12.60;64.85;100856.03;4971851;28;100790;-85
2022/05/07 03:19:18;;;;;;;21.70;14.50;;;;;;;12.59;64.49;100856.94;4975908;28;97276;-85
2022/05/07 03:21:44;;;;;;;23.73;13.90;;;;;;;12.59;65.11;100864.81;4971505;28;97109;-88
2022/05/07 03:24:10;;;;;;;21.13;13.88;;;;;;;12.54;65.37;100858.88;4973982;28;98019;-86
2022/05/07 03:26:37;;;;;;;25.50;13.57;;;;;;;12.56;64.96;100859.66;4955102;28;101688;-86
2022/05/07 03:29:04;;;;;;;23.42;13.93;;;;;;;12.59;65.05;100862.19;4978190;28;96928;-86
2022/05/07 03:31:30;;;;;;;19.10;13.80;;;;;;;12.59;64.84;100849.03;4975282;28;97394;-86
2022/05/07 03:33:57;;;;;;;26.52;13.85;;;;;;;12.42;65.34;100841.72;4957776;28;101078;-86
2022/05/07 03:36:27;;;;;;;20.93;13.93;;;;;;;12.57;64.66;100858.78;4959910;28;101339;-86
2022/05/07 03:38:54;;;;;;;19.25;14.63;;;;;;;12.57;64.56;100837.72;4958420;28;96770;-86
2022/05/07 03:41:24;;;;;;;23.70;13.90;;;;;;;12.77;63.87;100859.84;4959585;28;97005;-89
2022/05/07 03:43:50;;;;;;;24.58;14.05;;;;;;;12.67;64.02;100859.31;4970359;28;97975;-88
2022/05/07 03:46:16;;;;;;;21.38;15.30;;;;;;;12.51;64.58;100845.81;4974355;28;101160;-86
2022/05/07 03:48:51;;;;;;;26.38;15.55;;;;;;;12.54;65.46;100869.41;4960748;28;97115;-88
2022/05/07 03:51:16;;;;;;;25.45;14.43;;;;;;;12.63;64.97;100868.25;4955636;28;97002;-88
2022/05/07 03:53:42;;;;;;;18.58;13.80;;;;;;;12.43;65.40;100856.59;4969859;28;101737;-84
2022/05/07 03:56:14;;;;;;;23.30;14.73;;;;;;;12.65;64.90;100871.66;4975664;28;100420;-86
2022/05/07 03:58:40;;;;;;;27.48;14.57;;;;;;;12.83;65.01;100873.69;4974148;28;97157;-88
2022/05/07 04:01:08;;;;;;;21.48;14.43;;;;;;;12.95;64.35;100875.03;4974265;28;97319;-86
2022/05/07 04:03:35;;;;;;;26.38;14.77;;;;;;;12.82;64.35;100868.47;4956212;28;100230;-86
2022/05/07 04:06:01;;;;;;;22.25;14.10;;;;;;;12.83;64.28;100851.75;4970454;28;101232;-86
2022/05/07 04:08:27;;;;;;;27.67;15.40;;;;;;;12.86;64.04;100875.38;4968131;28;97153;-85
2022/05/07 04:10:54;;;;;;;22.88;15.25;;;;;;;12.90;64.50;100879.59;4973653;28;96807;-87
2022/05/07 04:13:23;;;;;;;23.83;15.20;;;;;;;12.96;64.71;100884.66;4973073;28;102178;-87
2022/05/07 04:15:54;;;;;;;22.58;15.13;;;;;;;13.06;63.98;100887.81;4954891;28;100234;-85
2022/05/07 04:18:22;;;;;;;20.40;14.32;;;;;;;13.18;63.10;100857.53;4990638;28;96962;-85
2022/05/07 04:20:52;;;;;;;24.95;14.30;;;;;;;13.33;62.95;100878.97;4972053;28;97167;-85
2022/05/07 04:23:19;;;;;;;23.17;14.10;;;;;;;13.47;62.60;100885.53;4957185;28;100782;-88
2022/05/07 04:25:46;;;;;;;22.75;14.57;;;;;;;13.45;62.88;100893.47;4971997;28;101361;-90
2022/05/07 04:28:15;;;;;;;20.45;14.05;;;;;;;13.55;62.84;100899.25;4974363;28;96683;-86
2022/05/07 04:30:44;;;;;;;26.15;15.27;;;;;;;13.59;62.38;100893.81;4958685;28;97182;-87
2022/05/07 04:33:11;;;;;;;22.30;14.45;;;;;;;13.41;63.02;100904.19;4973967;28;100626;-86
2022/05/07 04:35:37;;;;;;;20.20;13.85;;;;;;;13.45;62.83;100885.56;4957203;28;101393;-86
2022/05/07 04:38:06;;;;;;;24.33;14.02;;;;;;;13.42;62.41;100874.28;4953782;28;97408;-86
2022/05/07 04:40:33;;;;;;;22.90;13.77;;;;;;;13.64;62.30;100888.34;4965882;28;96894;-86
2022/05/07 04:42:59;;;;;;;24.50;14.98;;;;;;;13.46;62.47;100866.19;4957044;28;101188;-86
2022/05/07 04:45:28;;;;;;;24.27;14.13;;;;;;;13.53;62.58;100896.69;4974156;28;100292;-86
2022/05/07 04:48:06;;;;;;;22.42;13.88;;;;;;;13.61;62.25;100890.25;4975650;28;97123;-87
2022/05/07 04:50:34;;;;;;;22.77;14.05;;;;;;;13.79;61.76;100897.50;4970595;28;98282;-86
2022/05/07 04:53:35;;;;;;;20.70;13.68;;;;;;;13.91;61.75;100891.75;4984184;28;99443;-87
2022/05/07 04:56:11;;;;;;;25.70;14.07;;;;;;;14.01;61.96;100897.50;4955705;28;101323;-87
2022/05/07 04:58:45;;;;;;;25.45;14.75;;;;;;;13.87;61.16;100891.91;4956563;28;97115;-87
2022/05/07 05:01:11;;;;;;;25.27;15.60;;;;;;;13.72;61.47;100891.56;4958028;28;97262;-85
2022/05/07 05:03:43;;;;;;;27.55;14.95;;;;;;;13.71;61.47;100894.28;4977330;28;100357;-87
2022/05/07 05:06:17;;;;;;;26.80;14.85;;;;;;;13.87;61.58;100899.81;4981942;28;100425;-87
2022/05/07 05:09:09;;;;;;;23.55;13.98;;;;;;;13.80;61.93;100902.69;4979219;28;97037;-87
2022/05/07 05:11:43;;;;;;;22.63;14.43;;;;;;;13.97;61.45;100909.97;4974899;28;96782;-85
2022/05/07 05:16:56;;;;;;;21.55;13.93;;;;;;;14.33;60.74;100909.44;4962792;28;100188;-87
2022/05/07 05:19:22;;;;;;;22.95;12.85;;;;;;;14.36;60.61;100913.72;4957753;28;96745;-86
2022/05/07 05:21:48;;;;;;;27.92;14.10;;;;;;;14.21;60.56;100892.31;4970665;28;97615;-86
2022/05/07 05:24:20;;;;;;;21.13;12.65;;;;;;;14.36;60.71;100906.66;4970559;28;100588;-88
2022/05/07 05:26:45;;;;;;;23.25;14.18;;;;;;;14.41;60.83;100911.78;4953742;28;100309;-89
2022/05/07 05:29:16;;;;;;;20.90;14.23;;;;;;;14.59;60.58;100907.56;5003672;28;97244;-87
2022/05/07 05:31:42;;;;;;;25.20;13.73;;;;;;;14.36;60.97;100897.88;4970194;28;98048;-85
2022/05/07 05:34:28;;;;;;;23.55;13.20;;;;;;;14.38;61.56;100915.41;4991971;28;99020;-87
2022/05/07 05:36:55;;;;;;;25.92;13.30;;;;;;;14.42;61.08;100919.63;4960598;28;100619;-87
2022/05/07 05:39:23;;;;;;;20.52;13.07;;;;;;;14.55;60.72;100914.75;4961953;28;96618;-87
2022/05/07 05:41:51;;;;;;;21.15;13.32;;;;;;;14.48;60.84;100908.81;4976827;28;97369;-85
2022/05/07 05:44:18;;;;;;;17.95;13.13;;;;;;;14.54;60.11;100923.56;4976486;28;101088;-87
2022/05/07 05:46:43;;;;;;;25.60;13.68;;;;;;;14.42;60.02;100905.56;4976678;28;100377;-87
2022/05/07 05:49:09;;;;;;;19.88;13.77;;;;;;;14.47;60.76;100922.09;4977579;28;96936;-88
2022/05/07 05:51:37;;;;;;;22.40;13.18;;;;;;;14.55;60.76;100906.81;4977135;28;96874;-87
2022/05/07 05:54:03;;;;;;;22.85;12.45;;;;;;;14.74;60.23;100932.47;4975926;28;99775;-88
2022/05/07 05:56:28;;;;;;;23.33;13.68;;;;;;;14.84;59.86;100939.09;4974296;28;100531;-89
2022/05/07 05:58:57;;;;;;;20.20;12.65;;;;;;;14.83;59.73;100932.09;4961274;28;96857;-88
2022/05/07 06:01:30;;;;;;;26.35;12.40;;;;;;;14.83;59.29;100918.88;4962711;28;97473;-87
2022/05/07 06:04:16;;;;;;;21.30;13.05;;;;;;;14.84;59.65;100910.88;4988110;28;97771;-88
2022/05/07 06:06:42;;;;;;;21.00;12.45;;;;;;;15.02;59.08;100930.38;4975753;28;97382;-88
2022/05/07 06:09:09;;;;;;;22.67;14.05;;;;;;;15.04;58.77;100936.47;4960649;28;96775;-89
2022/05/07 06:11:35;;;;;;;20.55;13.00;;;;;;;15.11;58.98;100942.34;4960211;28;97396;-88
2022/05/07 06:14:02;;;;;;;19.75;12.82;;;;;;;15.09;58.73;100944.19;4976079;28;100262;-88
2022/05/07 06:16:29;;;;;;;21.08;12.48;;;;;;;15.11;58.25;100929.13;4960082;28;101146;-88
2022/05/07 06:18:57;;;;;;;18.17;12.05;;;;;;;15.17;58.52;100948.22;4976893;28;97103;-87
2022/05/07 06:21:26;;;;;;;23.42;12.60;;;;;;;15.30;58.52;100956.50;4975534;28;97046;-87
2022/05/07 06:23:52;;;;;;;18.48;12.00;;;;;;;15.42;58.33;100949.81;4959055;28;100864;-86
2022/05/07 06:29:08;;;;;;;17.93;12.50;;;;;;;15.65;58.22;100954.09;4987445;28;96777;-87
2022/05/07 06:31:37;;;;;;;20.55;13.07;;;;;;;15.55;58.17;100919.22;4969907;28;96878;-86
2022/05/07 06:34:03;;;;;;;21.55;15.23;;;;;;;15.36;57.16;100916.56;4968250;28;101577;-87
2022/05/07 06:36:28;;;;;;;32.72;16.55;;;;;;;15.76;56.75;100956.25;4979140;28;98168;-88
2022/05/07 06:38:55;;;;;;;20.63;14.30;;;;;;;15.75;56.68;100960.69;4961867;28;96845;-87
2022/05/07 06:41:21;;;;;;;29.63;14.95;;;;;;;15.60;57.13;100956.94;4939743;28;97160;-87
2022/05/07 06:43:52;;;;;;;26.98;14.65;;;;;;;15.53;57.06;100954.63;4947912;28;101514;-87
2022/05/07 06:46:29;;;;;;;22.95;14.50;;;;;;;15.90;56.17;100960.94;4966554;28;99729;-89
2022/05/07 06:49:02;;;;;;;28.25;14.65;;;;;;;15.85;56.59;100963.78;4976260;28;97399;-87
2022/05/07 06:51:39;;;;;;;21.63;14.27;;;;;;;15.91;56.35;100952.06;4976207;28;97249;-94
2022/05/07 06:54:04;;;;;;;24.17;14.27;;;;;;;16.11;56.19;100948.47;4989786;28;97500;-93
2022/05/07 06:56:30;;;;;;;21.42;15.23;;;;;;;16.21;56.26;100965.66;4964073;28;99789;-96
2022/05/07 06:58:55;;;;;;;23.33;14.52;;;;;;;16.17;56.30;100959.63;4985267;28;96843;-94
2022/05/07 07:01:21;;;;;;;23.35;14.43;;;;;;;16.43;56.07;100961.03;4986821;28;96699;-80
2022/05/07 07:03:46;;;;;;;24.45;15.02;;;;;;;16.69;55.27;100962.41;4969807;28;101631;-79
2022/05/07 07:06:13;;;;;;;21.10;14.23;;;;;;;16.70;55.87;100961.50;4982397;28;101594;-78
2022/05/07 07:08:38;;;;;;;26.10;15.65;;;;;;;16.50;56.15;100953.69;4972209;28;96846;-79
2022/05/07 07:11:04;;;;;;;21.33;15.40;;;;;;;16.90;55.48;100963.19;4969691;28;97204;-81
2022/05/07 07:13:30;;;;;;;21.83;15.80;;;;;;;17.24;55.14;100956.16;4980713;28;98127;-79
2022/05/07 07:15:55;;;;;;;26.40;16.95;;;;;;;17.33;54.99;100965.44;4956086;28;101500;-78
2022/05/07 07:18:21;;;;;;;28.98;16.65;;;;;;;17.45;54.84;100961.28;4968801;28;96910;-78
2022/05/07 07:20:49;;;;;;;25.30;17.95;;;;;;;17.62;54.06;100962.09;4970441;28;97103;-92
2022/05/07 07:23:15;;;;;;;27.60;17.08;;;;;;;18.00;52.73;100961.84;4983664;28;101292;-94
2022/05/07 07:25:42;;;;;;;23.40;15.98;;;;;;;18.42;51.77;100968.41;4968805;28;100727;-89
2022/05/07 07:28:09;;;;;;;26.65;16.15;;;;;;;18.61;50.87;100948.72;4975510;28;97015;-84
2022/05/07 07:30:35;;;;;;;26.77;17.05;;;;;;;19.06;50.45;100955.03;4972808;28;96931;-82
2022/05/07 07:33:01;;;;;;;22.67;15.98;;;;;;;19.51;49.61;100937.19;4953638;28;101873;-84
2022/05/07 07:35:27;;;;;;;22.08;14.63;;;;;;;20.13;48.21;100946.63;4990040;28;97891;-83
2022/05/07 07:37:52;;;;;;;28.23;15.77;;;;;;;20.13;48.28;100935.94;4973438;28;97162;-84
2022/05/07 07:40:18;;;;;;;22.30;14.95;;;;;;;20.57;46.75;100958.91;4994434;28;97130;-93
2022/05/07 07:42:44;;;;;;;18.85;14.10;;;;;;;20.94;45.71;100945.78;4976693;28;97099;-90
2022/05/07 07:47:57;;;;;;;19.05;13.15;;;;;;;21.45;44.78;100945.00;4992820;28;96750;-89
2022/05/07 07:50:23;;;;;;;17.40;12.30;;;;;;;21.50;43.81;100945.53;4975069;28;97481;-86
2022/05/07 07:52:57;;;;;;;20.17;12.15;;;;;;;21.58;43.95;100945.81;4971227;28;98243;-88
2022/05/07 07:55:23;;;;;;;17.52;11.07;;;;;;;21.42;43.37;100929.19;4992258;28;98502;-91
2022/05/07 07:57:52;;;;;;;17.67;11.18;;;;;;;21.50;43.29;100945.53;4956778;28;97285;-92
2022/05/07 08:00:17;;;;;;;15.15;9.63;;;;;;;21.34;42.92;100932.34;4971966;28;97470;-89
2022/05/07 08:02:52;;;;;;;17.38;10.45;;;;;;;21.89;42.34;100944.50;4956276;28;100275;-86
2022/05/07 08:05:30;;;;;;;12.95;10.23;;;;;;;22.42;42.42;100960.31;4972669;28;97647;-88
2022/05/07 08:13:24;;;;;;;12.70;9.38;;;;;;;23.31;38.88;100942.06;5005237;28;96514;-92
2022/05/07 08:15:50;;;;;;;16.45;9.50;;;;;;;23.37;39.39;100938.91;4973142;28;100839;-90
2022/05/07 08:18:16;;;;;;;15.48;9.02;;;;;;;23.70;38.46;100944.31;4973481;28;96808;-91
2022/05/07 08:20:43;;;;;;;14.05;8.57;;;;;;;23.53;39.02;100922.47;4966718;28;97424;-88
2022/05/07 08:23:09;;;;;;;15.65;9.98;;;;;;;24.00;39.39;100944.66;4973100;28;100259;-85
2022/05/07 08:25:35;;;;;;;15.93;8.05;;;;;;;25.22;36.45;100936.31;4973377;28;101453;-85
2022/05/07 08:28:01;;;;;;;14.27;8.90;;;;;;;29.06;31.65;100926.28;4972889;28;97685;-85
2022/05/07 08:30:27;;;;;;;10.50;7.47;;;;;;;29.65;30.25;100904.00;4973301;28;97243;-84
2022/05/07 08:32:53;;;;;;;13.82;6.95;;;;;;;28.78;31.13;100916.56;4973891;28;101690;-85
2022/05/07 08:35:18;;;;;;;9.52;5.43;;;;;;;28.66;31.33;100914.09;4955317;28;100880;-83
2022/05/07 08:37:45;;;;;;;9.23;4.95;;;;;;;30.16;29.23;100913.78;4956556;28;97432;-86
2022/05/07 08:40:14;;;;;;;7.20;4.90;;;;;;;29.17;30.08;100892.72;4970670;28;96846;-87
2022/05/07 08:42:40;;;;;;;6.80;5.33;;;;;;;28.52;29.69;100908.41;4991246;28;101867;-86
2022/05/07 08:45:06;;;;;;;5.80;4.43;;;;;;;28.63;29.07;100895.50;4961837;28;97996;-86
2022/05/07 08:47:32;;;;;;;7.15;5.45;;;;;;;28.77;28.64;100907.63;4973340;28;96797;-87
2022/05/07 08:49:57;;;;;;;7.60;5.68;;;;;;;27.41;30.17;100921.88;4976993;28;97976;-81
2022/05/07 08:52:23;;;;;;;8.82;5.80;;;;;;;27.18;31.12;100915.16;4953261;28;100933;-82
2022/05/07 08:54:49;;;;;;;12.70;5.80;;;;;;;26.77;31.57;100914.47;4971081;28;100922;-82
2022/05/07 08:57:15;;;;;;;9.25;5.85;;;;;;;26.51;31.15;100912.34;4971084;28;98992;-83
2022/05/07 08:59:42;;;;;;;9.73;5.15;;;;;;;25.83;31.78;100889.81;4969800;28;96843;-83
2022/05/07 09:02:08;;;;;;;12.27;4.63;;;;;;;28.98;30.50;100901.00;4954731;28;101788;-81
2022/05/07 09:04:36;;;;;;;8.95;4.70;;;;;;;30.09;27.76;100909.22;4978713;28;97876;-83
2022/05/07 09:07:03;;;;;;;10.20;5.03;;;;;;;31.33;26.86;100906.41;4969983;28;97520;-82
2022/05/07 09:09:31;;;;;;;13.23;5.53;;;;;;;31.22;26.52;100888.66;4970370;28;97123;-82
2022/05/07 09:11:57;;;;;;;14.57;6.78;;;;;;;32.15;26.83;100904.25;4971063;28;98127;-83
2022/05/07 09:14:30;;;;;;;13.00;6.40;;;;;;;33.02;25.18;100893.09;4970930;28;100795;-82
2022/05/07 09:16:59;;;;;;;15.35;7.25;;;;;;;33.40;25.15;100895.72;4991971;28;97441;-82
2022/05/07 09:19:29;;;;;;;11.57;4.60;;;;;;;33.08;23.04;100886.06;4983100;28;97666;-81
2022/05/07 09:22:04;;;;;;;;;;;;;;;32.67;23.45;100903.56;4978110;28;97691;-81
2022/05/07 09:24:30;;;;;;;11.55;5.75;;;;;;;32.61;24.68;100900.72;5002810;28;97739;-83
2022/05/07 09:26:57;;;;;;;6.75;3.97;;;;;;;32.10;23.68;100887.66;4971235;28;96865;-83
2022/05/07 09:29:26;;;;;;;7.15;4.05;;;;;;;32.19;23.82;100892.00;4971193;28;96896;-83
2022/05/07 09:31:53;;;;;;;10.32;4.18;;;;;;;32.00;24.24;100890.59;4977022;28;102330;-83
2022/05/07 09:37:18;;;;;;;7.38;3.55;;;;;;;31.40;25.85;100879.47;4987349;28;97197;-81
2022/05/07 09:39:49;;;;;;;11.25;4.20;;;;;;;31.80;25.96;100871.16;4986613;28;97708;-82
2022/05/07 09:42:22;;;;;;;9.07;3.75;;;;;;;31.96;26.19;100880.25;4987416;28;97993;-83
2022/05/07 09:44:48;;;;;;;7.95;3.20;;;;;;;32.05;24.81;100879.19;4977832;28;100469;-83
2022/05/07 09:47:14;;;;;;;8.40;2.40;;;;;;;32.10;23.68;100865.09;4981284;28;97294;-83
2022/05/07 09:52:29;;;;;;;3.85;2.33;;;;;;;32.18;22.90;100870.47;4982940;28;97923;-83
2022/05/07 09:57:39;;;;;;;4.15;2.72;;;;;;;31.57;23.63;100856.69;4971922;28;97261;-83
2022/05/07 10:00:07;;;;;;;7.25;2.22;;;;;;;31.00;24.96;100864.97;4977138;28;97516;-83
2022/05/07 10:03:03;;;;;;;4.57;2.25;;;;;;;30.57;25.55;100858.88;4984090;28;97837;-83
2022/05/07 10:05:45;;;;;;;5.05;2.60;;;;;;;29.21;26.86;100858.97;4984255;28;101524;-82
2022/05/07 10:08:32;;;;;;;6.93;2.60;;;;;;;28.47;28.58;100865.66;4988383;28;96754;-83
2022/05/07 10:10:58;;;;;;;7.03;2.50;;;;;;;27.63;29.08;100855.09;4973928;28;97152;-85
2022/05/07 10:13:24;;;;;;;7.00;2.72;;;;;;;27.04;29.44;100863.38;4971908;28;97541;-83
2022/05/07 10:16:00;;;;;;;4.80;2.67;;;;;;;26.62;29.45;100858.38;4958294;28;101663;-85
2022/05/07 10:18:41;;;;;;;4.57;2.30;;;;;;;26.31;30.01;100854.09;4988425;28;96748;-84
2022/05/07 10:21:15;;;;;;;5.25;2.25;;;;;;;26.09;29.82;100861.44;4991642;28;97397;-85
2022/05/07 10:23:52;;;;;;;4.25;2.22;;;;;;;25.80;30.49;100855.09;4974723;28;100930;-85
2022/05/07 10:26:19;;;;;;;6.45;2.05;;;;;;;25.63;30.80;100851.25;4975630;28;96996;-84
2022/05/07 10:28:44;;;;;;;4.18;2.30;;;;;;;25.40;30.68;100847.94;4958494;28;97418;-85
2022/05/07 10:31:16;;;;;;;4.30;2.20;;;;;;;24.96;30.33;100853.47;4992112;28;97491;-84
2022/05/07 10:33:43;;;;;;;7.22;2.30;;;;;;;24.71;31.50;100833.25;4974591;28;101843;-80
2022/05/07 10:36:09;;;;;;;5.15;2.53;;;;;;;25.14;30.90;100816.13;4990656;28;97411;-83
2022/05/07 10:38:37;;;;;;;2.60;1.90;;;;;;;25.29;30.12;100849.72;4990556;28;96845;-86
2022/05/07 10:41:09;;;;;;;5.00;2.17;;;;;;;24.95;29.58;100845.53;4971605;28;98703;-83
2022/05/07 10:43:42;;;;;;;6.15;2.28;;;;;;;24.77;29.07;100842.59;4973428;28;101822;-85
2022/05/07 10:46:14;;;;;;;4.75;2.67;;;;;;;24.26;29.05;100828.09;4975641;28;98314;-86
2022/05/07 10:48:45;;;;;;;5.97;2.60;;;;;;;24.00;30.59;100842.78;4960270;28;97294;-85
2022/05/07 10:51:22;;;;;;;3.85;2.53;;;;;;;24.12;31.61;100815.81;4991499;28;97159;-85
2022/05/07 10:53:48;;;;;;;9.27;2.95;;;;;;;23.99;29.87;100830.34;4970555;28;100848;-84
2022/05/07 10:56:18;;;;;;;3.53;2.28;;;;;;;23.60;29.92;100825.41;4965644;28;98064;-85
2022/05/07 10:58:48;;;;;;;5.75;2.35;;;;;;;23.42;29.75;100832.28;4959258;28;97043;-89
2022/05/07 11:01:15;;;;;;;6.47;2.28;;;;;;;23.03;31.14;100831.75;4973418;28;97336;-82
2022/05/07 11:03:40;;;;;;;5.78;2.28;;;;;;;23.24;31.62;100830.09;4957182;28;101150;-80
2022/05/07 11:06:06;;;;;;;11.35;2.22;;;;;;;23.69;31.52;100815.78;4973411;28;100849;-81
2022/05/07 11:08:32;;;;;;;6.75;2.50;;;;;;;23.81;30.78;100803.25;4991282;28;97463;-82
2022/05/07 11:11:07;;;;;;;7.13;2.40;;;;;;;23.63;30.11;100821.66;4957552;28;96892;-81
2022/05/07 11:13:37;;;;;;;5.55;2.33;;;;;;;23.60;31.41;100822.75;4956865;28;101203;-82
2022/05/07 11:16:04;;;;;;;8.48;2.70;;;;;;;23.57;30.34;100819.47;4972343;28;99631;-82
2022/05/07 11:18:34;;;;;;;5.78;2.33;;;;;;;23.73;31.17;100820.78;4986693;28;97437;-82
2022/05/07 11:21:03;;;;;;;8.75;2.83;;;;;;;23.78;30.65;100814.22;4983728;28;96773;-81
2022/05/07 11:23:30;;;;;;;6.43;2.75;;;;;;;23.69;30.03;100816.63;4950281;28;101036;-81
2022/05/07 11:25:56;;;;;;;14.23;2.42;;;;;;;23.67;31.63;100790.94;4985761;28;97351;-82
2022/05/07 11:28:21;;;;;;;6.28;2.00;;;;;;;24.15;31.84;100804.00;4972012;28;97343;-81
2022/05/07 11:30:53;;;;;;;6.07;2.60;;;;;;;24.12;31.30;100802.41;4955644;28;97093;-81
2022/05/07 11:33:25;;;;;;;3.72;2.22;;;;;;;24.13;31.21;100796.06;4980061;28;101791;-82
2022/05/07 11:36:07;;;;;;;6.35;2.47;;;;;;;24.34;31.40;100800.59;4967458;28;101218;-82
2022/05/07 11:38:36;;;;;;;3.45;2.30;;;;;;;24.36;29.86;100787.91;4975654;28;96845;-82
2022/05/07 11:41:14;;;;;;;5.35;2.35;;;;;;;24.36;31.33;100780.72;4982005;28;96846;-80
2022/05/07 11:46:26;;;;;;;6.43;2.30;;;;;;;24.80;31.73;100794.03;4973031;28;98549;-83
2022/05/07 11:48:52;;;;;;;8.38;2.75;;;;;;;24.56;29.48;100794.31;4971974;28;97268;-80
2022/05/07 11:51:27;;;;;;;8.23;2.50;;;;;;;24.40;29.85;100795.59;4970679;28;97254;-80
2022/05/07 11:53:53;;;;;;;5.65;2.10;;;;;;;24.52;31.21;100792.84;4969010;28;97848;-81